createdAt,value
2022-08-05T00:00:51.606Z,98979.25
2022-08-05T00:03:18.197Z,98978.06
2022-08-05T00:06:06.539Z,98977.25
2022-08-05T00:08:34.846Z,98970.56
2022-08-05T00:11:05.523Z,98982.00
2022-08-05T00:13:52.910Z,98985.16
2022-08-05T00:16:36.007Z,99011.56
2022-08-05T00:19:03.926Z,99012.72
2022-08-05T00:21:30.752Z,99013.59
2022-08-05T00:24:10.155Z,99002.94
2022-08-05T00:26:38.119Z,99011.59
2022-08-05T00:29:04.684Z,99027.00
2022-08-05T00:31:41.340Z,99040.38
2022-08-05T00:34:53.414Z,99043.47
2022-08-05T00:37:10.309Z,99061.19
2022-08-05T00:39:44.330Z,99128.13
2022-08-05T00:42:33.008Z,99093.00
2022-08-05T00:45:00.167Z,99118.13
2022-08-05T00:47:31.664Z,99057.44
2022-08-05T00:50:13.409Z,99042.09
2022-08-05T00:52:40.158Z,99053.16
2022-08-05T00:55:06.947Z,99059.06
2022-08-05T00:57:55.468Z,99069.31
2022-08-05T01:00:20.230Z,99046.88
2022-08-05T01:02:50.221Z,99058.25
2022-08-05T01:05:16.868Z,99055.06
2022-08-05T01:08:40.760Z,99051.09
2022-08-05T01:10:41.823Z,99067.63
2022-08-05T01:13:57.421Z,99065.19
2022-08-05T01:16:40.273Z,99074.69
2022-08-05T01:19:56.319Z,99101.03
2022-08-05T01:22:58.236Z,99119.00
2022-08-05T01:25:55.993Z,99143.28
2022-08-05T01:28:39.518Z,99126.63
2022-08-05T01:31:28.952Z,99174.84
2022-08-05T01:34:13.956Z,99197.38
2022-08-05T01:36:47.658Z,99240.09
2022-08-05T01:39:45.637Z,99265.59
2022-08-05T01:42:06.389Z,99294.28
2022-08-05T01:44:37.663Z,99306.47
2022-08-05T01:47:05.217Z,99319.34
2022-08-05T01:50:00.446Z,99304.31
2022-08-05T01:52:22.918Z,99286.47
2022-08-05T01:54:53.315Z,99273.75
2022-08-05T01:58:10.214Z,99280.81
2022-08-05T02:00:15.213Z,99285.84
2022-08-05T02:02:53.709Z,99274.50
2022-08-05T02:05:25.174Z,99274.50
2022-08-05T02:07:59.925Z,99272.22
2022-08-05T02:10:32.925Z,99267.94
2022-08-05T02:13:19.032Z,99262.13
2022-08-05T02:15:53.933Z,99254.28
2022-08-05T02:18:34.573Z,99248.81
2022-08-05T02:21:14.784Z,99253.56
2022-08-05T02:23:44.473Z,99268.50
2022-08-05T02:26:17.222Z,99274.81
2022-08-05T02:28:46.363Z,99264.59
2022-08-05T02:31:21.743Z,99274.88
2022-08-05T02:33:58.078Z,99296.06
2022-08-05T02:36:27.553Z,99294.50
2022-08-05T02:38:58.733Z,99309.47
2022-08-05T02:41:29.032Z,99320.06
2022-08-05T02:44:13.569Z,99328.25
2022-08-05T02:46:58.702Z,99332.50
2022-08-05T02:49:36.059Z,99359.09
2022-08-05T02:52:09.135Z,99368.00
2022-08-05T02:54:37.697Z,99349.81
2022-08-05T02:58:12.297Z,99326.09
2022-08-05T02:59:59.475Z,99306.22
2022-08-05T03:02:33.927Z,99301.03
2022-08-05T03:05:02.583Z,99281.69
2022-08-05T03:08:00.559Z,99270.63
2022-08-05T03:10:21.858Z,99254.88
2022-08-05T03:12:52.128Z,99223.81
2022-08-05T03:15:20.588Z,99206.97
2022-08-05T03:17:47.109Z,99208.63
2022-08-05T03:20:13.968Z,99205.56
2022-08-05T03:22:46.896Z,99205.63
2022-08-05T03:25:33.078Z,99202.88
2022-08-05T03:28:08.455Z,99200.13
2022-08-05T03:30:35.786Z,99220.91
2022-08-05T03:33:04.383Z,99228.34
2022-08-05T03:35:34.041Z,99255.03
2022-08-05T03:38:10.503Z,99242.50
2022-08-05T03:40:45.222Z,99282.28
2022-08-05T03:43:59.257Z,99310.19
2022-08-05T03:46:01.764Z,99310.97
2022-08-05T03:48:29.663Z,99289.03
2022-08-05T03:52:37.042Z,99283.22
2022-08-05T03:55:51.843Z,99262.97
2022-08-05T03:57:16.589Z,99271.22
2022-08-05T03:59:55.001Z,99280.66
2022-08-05T04:02:38.976Z,99271.94
2022-08-05T04:05:12.908Z,99270.81
2022-08-05T04:07:57.919Z,99264.16
2022-08-05T04:10:30.856Z,99240.59
2022-08-05T04:13:00.589Z,99221.00
2022-08-05T04:15:33.172Z,99232.81
2022-08-05T04:18:07.168Z,99217.34
2022-08-05T04:20:36.142Z,99217.00
2022-08-05T04:23:02.716Z,99232.00
2022-08-05T04:25:56.472Z,99193.50
2022-08-05T04:28:17.490Z,99175.41
2022-08-05T04:30:44.795Z,99180.09
2022-08-05T04:33:12.183Z,99175.41
2022-08-05T04:36:16.661Z,99190.75
2022-08-05T04:38:39.869Z,99188.00
2022-08-05T04:41:09.635Z,99192.31
2022-08-05T04:43:38.058Z,99183.25
2022-08-05T04:46:13.256Z,99171.91
2022-08-05T04:48:39.963Z,99180.94
2022-08-05T04:51:11.159Z,99192.00
2022-08-05T04:53:38.568Z,99204.34
2022-08-05T04:56:32.275Z,99208.81
2022-08-05T04:58:54.436Z,99188.16
2022-08-05T05:02:06.139Z,99181.38
2022-08-05T05:04:07.627Z,99174.50
2022-08-05T05:06:39.618Z,99190.75
2022-08-05T05:09:14.260Z,99216.13
2022-08-05T05:11:55.541Z,99218.91
2022-08-05T05:14:31.315Z,99225.25
2022-08-05T05:17:01.805Z,99229.13
2022-08-05T05:19:36.858Z,99236.91
2022-08-05T05:22:24.283Z,99235.31
2022-08-05T05:24:56.787Z,99244.38
2022-08-05T05:27:44.525Z,99232.91
2022-08-05T05:30:29.508Z,99219.53
2022-08-05T05:33:00.083Z,99199.81
2022-08-05T05:35:37.763Z,99207.78
2022-08-05T05:38:09.254Z,99204.22
2022-08-05T05:40:45.062Z,99239.31
2022-08-05T05:43:28.078Z,99257.72
2022-08-05T05:46:03.685Z,99277.75
2022-08-05T05:48:32.079Z,99300.38
2022-08-05T05:51:14.929Z,99288.75
2022-08-05T05:53:54.102Z,99269.09
2022-08-05T05:56:33.065Z,99279.59
2022-08-05T05:59:03.292Z,99278.31
2022-08-05T06:01:38.197Z,99289.28
2022-08-05T06:04:11.668Z,99303.25
2022-08-05T06:06:41.747Z,99317.34
2022-08-05T06:09:08.685Z,99306.31
2022-08-05T06:11:35.527Z,99296.63
2022-08-05T06:14:06.184Z,99298.22
2022-08-05T06:16:37.306Z,99294.63
2022-08-05T06:19:05.999Z,99308.25
2022-08-05T06:21:37.658Z,99301.34
2022-08-05T06:24:11.524Z,99262.09
2022-08-05T06:26:39.137Z,99252.56
2022-08-05T06:29:23.827Z,99258.81
2022-08-05T06:31:52.724Z,99246.91
2022-08-05T06:34:20.055Z,99222.50
2022-08-05T06:36:58.243Z,99228.50
2022-08-05T06:39:27.860Z,99250.00
2022-08-05T06:42:02.038Z,99261.91
2022-08-05T06:44:30.783Z,99279.22
2022-08-05T06:46:57.454Z,99262.00
2022-08-05T06:50:00.138Z,99276.63
2022-08-05T06:52:37.258Z,99272.78
2022-08-05T06:54:57.678Z,99287.50
2022-08-05T06:57:57.360Z,99302.75
2022-08-05T07:00:11.339Z,99301.47
2022-08-05T07:02:46.376Z,99292.22
2022-08-05T07:05:18.650Z,99288.75
2022-08-05T07:07:48.908Z,99298.41
2022-08-05T07:10:16.498Z,99288.09
2022-08-05T07:13:02.612Z,99318.47
2022-08-05T07:16:01.286Z,99341.72
2022-08-05T07:18:31.861Z,99332.28
2022-08-05T07:20:58.695Z,99333.28
2022-08-05T07:23:33.720Z,99334.06
2022-08-05T07:26:03.555Z,99320.09
2022-08-05T07:28:30.147Z,99309.31
2022-08-05T07:30:56.857Z,99248.72
2022-08-05T07:33:35.183Z,99232.13
2022-08-05T07:36:21.170Z,99295.97
2022-08-05T07:38:49.031Z,99299.72
2022-08-05T07:42:14.678Z,99279.28
2022-08-05T07:44:14.353Z,99314.38
2022-08-05T07:46:48.539Z,99364.50
2022-08-05T07:49:18.164Z,99363.34
2022-08-05T07:51:48.635Z,99355.34
2022-08-05T07:54:23.216Z,99382.38
2022-08-05T07:57:13.575Z,99389.31
2022-08-05T07:59:41.202Z,99385.19
2022-08-05T08:02:15.435Z,99377.34
2022-08-05T08:04:45.069Z,99389.31
2022-08-05T08:07:12.249Z,99368.53
2022-08-05T08:09:38.825Z,99357.91
2022-08-05T08:12:19.959Z,99365.44
2022-08-05T08:14:52.677Z,99357.88
2022-08-05T08:17:21.227Z,99369.72
2022-08-05T08:20:21.167Z,99390.88
2022-08-05T08:22:35.687Z,99414.88
2022-08-05T08:25:03.182Z,99422.97
2022-08-05T08:27:39.980Z,99407.25
2022-08-05T08:30:28.607Z,99417.63
2022-08-05T08:33:02.627Z,99445.25
2022-08-05T08:35:34.968Z,99437.09
2022-08-05T08:38:07.518Z,99429.03
2022-08-05T08:40:35.392Z,99426.44
2022-08-05T08:45:16.652Z,99429.41
2022-08-05T08:45:52.904Z,99422.34
2022-08-05T08:48:36.196Z,99418.03
2022-08-05T08:51:54.528Z,99421.41
2022-08-05T08:53:55.215Z,99442.97
2022-08-05T08:56:23.598Z,99433.25
2022-08-05T08:58:54.342Z,99414.03
2022-08-05T09:01:21.730Z,99420.38
2022-08-05T09:03:54.602Z,99405.34
2022-08-05T09:06:24.255Z,99388.34
2022-08-05T09:08:55.971Z,99404.25
2022-08-05T09:11:52.748Z,99403.81
2022-08-05T09:14:56.488Z,99414.19
2022-08-05T09:17:00.439Z,99427.16
2022-08-05T09:19:36.271Z,99424.66
2022-08-05T09:22:31.285Z,99423.47
2022-08-05T09:25:14.055Z,99423.94
2022-08-05T09:28:04.082Z,99423.94
2022-08-05T09:30:34.565Z,99436.34
2022-08-05T09:33:02.322Z,99439.84
2022-08-05T09:35:29.458Z,99443.50
2022-08-05T09:38:12.853Z,99445.25
2022-08-05T09:40:51.794Z,99436.25
2022-08-05T09:43:41.322Z,99449.75
2022-08-05T09:46:32.770Z,99460.41
2022-08-05T09:49:06.727Z,99460.72
2022-08-05T09:51:40.035Z,99461.97
2022-08-05T09:54:09.445Z,99451.84
2022-08-05T09:56:38.090Z,99455.94
2022-08-05T09:59:07.727Z,99458.75
2022-08-05T10:01:36.963Z,99464.91
2022-08-05T10:04:16.199Z,99457.94
2022-08-05T10:06:59.264Z,99457.63
2022-08-05T10:09:29.242Z,99470.38
2022-08-05T10:12:18.664Z,99463.13
2022-08-05T10:15:16.225Z,99466.78
2022-08-05T10:17:54.442Z,99460.34
2022-08-05T10:20:23.930Z,99468.56
2022-08-05T10:22:52.661Z,99459.88
2022-08-05T10:25:19.613Z,99474.19
2022-08-05T10:28:13.272Z,99466.56
2022-08-05T10:31:20.479Z,99465.34
2022-08-05T10:33:28.890Z,99468.84
2022-08-05T10:35:59.718Z,99458.78
2022-08-05T10:38:29.163Z,99465.25
2022-08-05T10:41:23.444Z,99447.03
2022-08-05T10:44:07.051Z,99444.06
2022-08-05T10:46:54.690Z,99441.59
2022-08-05T10:49:27.594Z,99444.63
2022-08-05T10:52:03.347Z,99454.00
2022-08-05T10:54:56.987Z,99467.16
2022-08-05T10:57:31.747Z,99486.16
2022-08-05T11:00:19.081Z,99494.06
2022-08-05T11:03:24.811Z,99492.81
2022-08-05T11:06:08.494Z,99505.09
2022-08-05T11:09:10.747Z,99511.34
2022-08-05T11:11:52.886Z,99509.84
2022-08-05T11:14:57.886Z,99498.00
2022-08-05T11:18:00.349Z,99499.06
2022-08-05T11:20:32.490Z,99502.34
2022-08-05T11:23:05.822Z,99508.19
2022-08-05T11:26:04.763Z,99524.06
2022-08-05T11:28:22.266Z,99542.06
2022-08-05T11:30:55.515Z,99536.66
2022-08-05T11:33:43.789Z,99544.81
2022-08-05T11:36:34.729Z,99540.91
2022-08-05T11:39:09.190Z,99516.84
2022-08-05T11:42:02.010Z,99522.56
2022-08-05T11:44:40.506Z,99501.75
2022-08-05T11:47:11.115Z,99507.41
2022-08-05T11:49:43.268Z,99499.72
2022-08-05T11:52:24.347Z,99499.63
2022-08-05T11:54:57.486Z,99491.94
2022-08-05T11:57:39.360Z,99486.00
2022-08-05T12:00:30.982Z,99493.06
2022-08-05T12:02:57.852Z,99495.47
2022-08-05T12:05:32.227Z,99497.28
2022-08-05T12:08:10.053Z,99503.09
2022-08-05T12:10:45.472Z,99505.53
2022-08-05T12:13:18.953Z,99497.31
2022-08-05T12:16:15.028Z,99509.72
2022-08-05T12:18:52.427Z,99499.25
2022-08-05T12:21:30.621Z,99499.69
2022-08-05T12:24:07.121Z,99498.09
2022-08-05T12:26:50.000Z,99502.09
2022-08-05T12:29:22.998Z,99502.16
2022-08-05T12:31:59.740Z,99509.66
2022-08-05T12:34:33.377Z,99500.84
2022-08-05T12:37:10.820Z,99504.41
2022-08-05T12:39:44.799Z,99502.47
2022-08-05T12:42:19.634Z,99498.97
2022-08-05T12:44:47.565Z,99507.72
2022-08-05T12:47:26.225Z,99511.66
2022-08-05T12:50:03.448Z,99503.75
2022-08-05T12:52:41.692Z,99504.16
2022-08-05T12:55:25.357Z,99512.88
2022-08-05T12:58:51.395Z,99516.41
2022-08-05T13:02:01.736Z,99514.81
2022-08-05T13:03:43.067Z,99513.19
2022-08-05T13:06:16.128Z,99518.72
2022-08-05T13:08:52.010Z,99512.03
2022-08-05T13:11:59.967Z,99526.97
2022-08-05T13:14:19.566Z,99525.88
2022-08-05T13:16:56.390Z,99528.28
2022-08-05T13:19:27.252Z,99515.63
2022-08-05T13:22:13.832Z,99518.81
2022-08-05T13:24:57.991Z,99526.34
2022-08-05T13:27:38.716Z,99519.63
2022-08-05T13:30:35.105Z,99511.31
2022-08-05T13:32:56.495Z,99512.09
2022-08-05T13:35:42.734Z,99516.47
2022-08-05T13:38:14.528Z,99506.19
2022-08-05T13:40:55.192Z,99504.59
2022-08-05T13:43:22.373Z,99510.13
2022-08-05T13:45:49.174Z,99501.47
2022-08-05T13:48:57.601Z,99500.66
2022-08-05T13:51:09.554Z,99515.72
2022-08-05T13:53:47.728Z,99506.22
2022-08-05T13:56:18.474Z,99510.16
2022-08-05T13:58:53.476Z,99504.59
2022-08-05T14:01:25.946Z,99516.47
2022-08-05T14:04:22.096Z,99513.25
2022-08-05T14:07:11.897Z,99506.13
2022-08-05T14:09:46.092Z,99512.44
2022-08-05T14:12:17.872Z,99511.72
2022-08-05T14:14:58.559Z,99513.31
2022-08-05T14:17:26.618Z,99513.28
2022-08-05T14:20:00.905Z,99516.38
2022-08-05T14:22:30.467Z,99513.94
2022-08-05T14:25:01.708Z,99504.00
2022-08-05T14:27:32.867Z,99507.47
2022-08-05T14:29:59.690Z,99505.00
2022-08-05T14:32:27.754Z,99509.81
2022-08-05T14:34:57.042Z,99507.59
2022-08-05T14:37:49.039Z,99514.03
2022-08-05T14:40:14.071Z,99520.78
2022-08-05T14:42:43.324Z,99519.66
2022-08-05T14:45:10.529Z,99523.59
2022-08-05T14:48:03.700Z,99521.59
2022-08-05T14:50:25.339Z,99518.72
2022-08-05T14:52:58.762Z,99525.75
2022-08-05T14:55:39.580Z,99518.28
2022-08-05T14:58:11.575Z,99527.00
2022-08-05T15:00:59.092Z,99523.06
2022-08-05T15:03:33.778Z,99519.56
2022-08-05T15:06:08.014Z,99521.22
2022-08-05T15:08:59.146Z,99522.00
2022-08-05T15:11:51.196Z,99513.31
2022-08-05T15:14:20.038Z,99520.03
2022-08-05T15:17:00.777Z,99524.38
2022-08-05T15:19:27.380Z,99527.16
2022-08-05T15:21:54.516Z,99522.44
2022-08-05T15:24:27.030Z,99526.41
2022-08-05T15:26:53.602Z,99523.63
2022-08-05T15:29:22.421Z,99521.25
2022-08-05T15:31:53.103Z,99531.16
2022-08-05T15:34:33.161Z,99538.69
2022-08-05T15:37:07.021Z,99529.16
2022-08-05T15:41:04.618Z,99535.09
2022-08-05T15:42:53.549Z,99541.84
2022-08-05T15:45:15.334Z,99534.72
2022-08-05T15:47:43.578Z,99538.66
2022-08-05T15:50:15.275Z,99539.47
2022-08-05T15:52:52.948Z,99537.47
2022-08-05T15:55:24.867Z,99540.28
2022-08-05T15:58:08.309Z,99539.47
2022-08-05T16:00:50.553Z,99545.41
2022-08-05T16:03:21.938Z,99546.53
2022-08-05T16:05:52.568Z,99546.22
2022-08-05T16:08:19.417Z,99542.50
2022-08-05T16:10:46.052Z,99555.09
2022-08-05T16:13:23.239Z,99552.75
2022-08-05T16:15:51.897Z,99559.41
2022-08-05T16:18:19.251Z,99563.25
2022-08-05T16:20:46.491Z,99560.38
2022-08-05T16:23:13.063Z,99557.28
2022-08-05T16:25:40.153Z,99551.56
2022-08-05T16:28:09.695Z,99549.16
2022-08-05T16:30:37.075Z,99556.53
2022-08-05T16:33:03.811Z,99555.13
2022-08-05T16:35:33.694Z,99553.47
2022-08-05T16:38:18.813Z,99561.66
2022-08-05T16:41:00.578Z,99565.09
2022-08-05T16:43:32.626Z,99558.19
2022-08-05T16:46:06.977Z,99576.88
2022-08-05T16:48:39.607Z,99561.50
2022-08-05T16:51:09.684Z,99568.53
2022-08-05T16:54:04.304Z,99568.25
2022-08-05T16:56:27.537Z,99579.56
2022-08-05T16:58:54.105Z,99580.25
2022-08-05T17:01:20.957Z,99583.88
2022-08-05T17:03:47.700Z,99582.41
2022-08-05T17:06:16.430Z,99581.53
2022-08-05T17:08:52.913Z,99574.41
2022-08-05T17:11:25.357Z,99581.56
2022-08-05T17:14:00.695Z,99583.91
2022-08-05T17:16:35.902Z,99590.53
2022-08-05T17:19:07.689Z,99593.38
2022-08-05T17:21:37.426Z,99594.53
2022-08-05T17:24:28.419Z,99598.06
2022-08-05T17:26:56.693Z,99596.09
2022-08-05T17:29:33.059Z,99605.69
2022-08-05T17:32:11.953Z,99607.75
2022-08-05T17:34:47.747Z,99611.00
2022-08-05T17:37:41.889Z,99611.50
2022-08-05T17:40:10.379Z,99610.75
2022-08-05T17:42:41.342Z,99613.13
2022-08-05T17:45:20.287Z,99616.31
2022-08-05T17:47:53.502Z,99620.22
2022-08-05T17:50:28.715Z,99621.00
2022-08-05T17:52:59.047Z,99626.47
2022-08-05T17:55:34.137Z,99635.56
2022-08-05T17:58:05.895Z,99636.66
2022-08-05T18:00:34.564Z,99636.56
2022-08-05T18:03:02.130Z,99640.03
2022-08-05T18:05:35.248Z,99642.66
2022-08-05T18:08:02.799Z,99656.03
2022-08-05T18:10:32.048Z,99654.75
2022-08-05T18:13:00.522Z,99662.94
2022-08-05T18:15:31.215Z,99662.88
2022-08-05T18:18:05.679Z,99664.81
2022-08-05T18:20:37.896Z,99678.13
2022-08-05T18:23:11.378Z,99685.50
2022-08-05T18:25:44.064Z,99696.03
2022-08-05T18:28:12.155Z,99691.59
2022-08-05T18:30:51.054Z,99696.63
2022-08-05T18:33:22.706Z,99705.63
2022-08-05T18:36:03.944Z,99712.63
2022-08-05T18:38:31.938Z,99712.47
2022-08-05T18:41:55.981Z,99710.47
2022-08-05T18:43:48.536Z,99723.38
2022-08-05T18:46:19.564Z,99720.91
2022-08-05T18:48:53.683Z,99722.34
2022-08-05T18:52:05.611Z,99723.84
2022-08-05T18:54:31.400Z,99727.72
2022-08-05T18:57:01.987Z,99730.75
2022-08-05T18:59:44.278Z,99727.38
2022-08-05T19:02:27.446Z,99740.97
2022-08-05T19:05:02.167Z,99743.91
2022-08-05T19:07:45.614Z,99746.50
2022-08-05T19:10:14.372Z,99756.16
2022-08-05T19:12:41.373Z,99775.69
2022-08-05T19:15:10.706Z,99766.44
2022-08-05T19:18:08.549Z,99784.00
2022-08-05T19:20:41.600Z,99781.81
2022-08-05T19:23:22.609Z,99785.22
2022-08-05T19:26:02.070Z,99798.88
2022-08-05T19:28:30.782Z,99801.19
2022-08-05T19:30:58.148Z,99808.94
2022-08-05T19:33:36.395Z,99813.59
2022-08-05T19:36:06.597Z,99827.66
2022-08-05T19:38:37.307Z,99829.75
2022-08-05T19:41:07.054Z,99836.72
2022-08-05T19:44:04.583Z,99826.34
2022-08-05T19:46:30.169Z,99851.50
2022-08-05T19:49:01.139Z,99849.03
2022-08-05T19:52:05.821Z,99848.06
2022-08-05T19:54:22.849Z,99868.75
2022-08-05T19:56:58.744Z,99870.53
2022-08-05T19:59:55.505Z,99868.03
2022-08-05T20:02:12.995Z,99877.00
2022-08-05T20:04:43.167Z,99883.22
2022-08-05T20:07:13.281Z,99895.66
2022-08-05T20:09:54.657Z,99899.03
2022-08-05T20:12:22.717Z,99899.75
2022-08-05T20:14:52.257Z,99905.13
2022-08-05T20:17:23.602Z,99906.97
2022-08-05T20:19:57.336Z,99911.25
2022-08-05T20:22:26.974Z,99917.53
2022-08-05T20:24:54.620Z,99924.19
2022-08-05T20:27:26.726Z,99923.75
2022-08-05T20:29:58.205Z,99927.47
2022-08-05T20:32:27.052Z,99931.25
2022-08-05T20:34:54.504Z,99931.88
2022-08-05T20:38:04.742Z,99924.66
2022-08-05T20:40:08.843Z,99944.53
2022-08-05T20:42:35.640Z,99942.00
2022-08-05T20:45:02.702Z,99950.97
2022-08-05T20:47:32.102Z,99954.78
2022-08-05T20:49:59.448Z,99956.25
2022-08-05T20:52:26.336Z,99957.03
2022-08-05T20:54:59.161Z,99967.97
2022-08-05T20:57:43.941Z,99969.34
2022-08-05T21:00:35.086Z,99971.09
2022-08-05T21:03:07.385Z,99984.56
2022-08-05T21:05:48.083Z,99974.19
2022-08-05T21:08:28.192Z,99982.63
2022-08-05T21:11:09.903Z,99983.69
2022-08-05T21:13:56.501Z,99986.34
2022-08-05T21:16:29.595Z,99988.06
2022-08-05T21:19:00.527Z,99997.78
2022-08-05T21:21:39.220Z,99991.03
2022-08-05T21:24:12.714Z,100000.75
2022-08-05T21:26:41.344Z,100002.34
2022-08-05T21:29:10.144Z,100005.78
2022-08-05T21:31:43.499Z,100004.44
2022-08-05T21:34:11.039Z,99995.63
2022-08-05T21:36:38.146Z,99999.41
2022-08-05T21:39:04.911Z,100002.81
2022-08-05T21:41:33.926Z,100009.44
2022-08-05T21:44:04.101Z,100003.97
2022-08-05T21:46:34.229Z,100003.88
2022-08-05T21:49:04.610Z,100012.44
2022-08-05T21:52:16.015Z,100014.72
2022-08-05T21:54:28.007Z,100020.44
2022-08-05T21:57:29.265Z,100023.41
2022-08-05T22:00:01.919Z,100020.19
2022-08-05T22:02:30.366Z,100025.06
2022-08-05T22:04:58.391Z,100023.34
2022-08-05T22:07:40.042Z,100026.78
2022-08-05T22:10:14.104Z,100029.75
2022-08-05T22:12:44.975Z,100027.69
2022-08-05T22:16:01.293Z,100036.09
2022-08-05T22:18:05.064Z,100028.69
2022-08-05T22:20:31.783Z,100032.91
2022-08-05T22:23:21.231Z,100039.06
2022-08-05T22:26:09.648Z,100033.13
2022-08-05T22:28:38.714Z,100040.44
2022-08-05T22:31:05.982Z,100050.25
2022-08-05T22:33:57.134Z,100043.63
2022-08-05T22:36:24.126Z,100055.28
2022-08-05T22:38:51.515Z,100047.38
2022-08-05T22:42:05.522Z,100054.81
2022-08-05T22:44:08.643Z,100056.50
2022-08-05T22:46:39.764Z,100059.00
2022-08-05T22:49:23.020Z,100061.91
2022-08-05T22:52:06.019Z,100063.72
2022-08-05T22:54:37.671Z,100069.88
2022-08-05T22:57:06.271Z,100082.31
2022-08-05T22:59:43.569Z,100080.59
2022-08-05T23:02:18.200Z,100085.25
2022-08-05T23:04:52.156Z,100080.13
2022-08-05T23:07:22.162Z,100084.34
2022-08-05T23:09:57.805Z,100090.94
2022-08-05T23:12:32.732Z,100092.09
2022-08-05T23:15:03.565Z,100094.69
2022-08-05T23:17:34.405Z,100096.13
2022-08-05T23:20:15.567Z,100092.44
2022-08-05T23:22:47.742Z,100096.19
2022-08-05T23:25:54.939Z,100096.88
2022-08-05T23:28:06.941Z,100094.31
2022-08-05T23:30:40.226Z,100108.19
2022-08-05T23:33:16.189Z,100103.72
2022-08-05T23:35:50.226Z,100096.81
2022-08-05T23:38:17.034Z,100111.50
2022-08-05T23:40:49.571Z,100105.09
2022-08-05T23:43:25.387Z,100108.84
2022-08-05T23:46:03.879Z,100111.75
2022-08-05T23:48:30.435Z,100109.19
2022-08-05T23:50:57.002Z,100117.25
2022-08-05T23:53:28.569Z,100114.38
2022-08-05T23:56:12.016Z,100114.91
2022-08-05T23:58:38.737Z,100117.94
